Time;durP1;ratioP1;P1;durP2;ratioP2;P2;SDS_P1;SDS_P2;PMS_P1;PMS_P2;Temp;Humidity;BMP_temperature;BMP_pressure;BME280_temperature;BME280_humidity;BME280_pressure;Samples;Min_cycle;Max_cycle;Signal;HPM_P1;HPM_P2
2022/01/29 00:00:40;;;;;;;28.73;12.80;;;;;;;7.60;96.58;102052.38;8392710;28;20191;-65
2022/01/29 00:04:40;;;;;;;27.50;12.77;;;;;;;7.64;96.15;102044.06;8392662;28;20432;-65
2022/01/29 00:08:41;;;;;;;28.27;11.85;;;;;;;7.76;95.51;102064.94;8392429;28;20044;-65
2022/01/29 00:12:42;;;;;;;27.67;11.55;;;;;;;7.83;95.06;102069.00;8374531;28;20096;-65
2022/01/29 00:16:42;;;;;;;33.55;12.85;;;;;;;7.86;95.31;102068.84;8391946;28;20431;-65
2022/01/29 00:20:43;;;;;;;28.13;13.45;;;;;;;7.84;95.39;102064.50;8382344;28;20068;-65
2022/01/29 00:24:43;;;;;;;33.88;14.85;;;;;;;7.89;94.93;102062.41;8344364;28;20519;-65
2022/01/29 00:28:44;;;;;;;32.42;14.25;;;;;;;7.86;95.58;102051.78;8357175;28;20443;-65
2022/01/29 00:32:44;;;;;;;35.53;14.38;;;;;;;7.84;95.67;102054.56;8360835;28;20033;-65
2022/01/29 00:36:45;;;;;;;33.60;13.85;;;;;;;7.88;94.81;102049.91;8390444;28;20432;-65
2022/01/29 00:40:46;;;;;;;32.40;13.90;;;;;;;7.90;94.62;102030.00;8350546;28;20045;-65
2022/01/29 00:44:47;;;;;;;32.60;14.77;;;;;;;7.92;94.64;102025.41;8341144;28;20029;-65
2022/01/29 00:48:47;;;;;;;31.77;14.13;;;;;;;7.85;95.15;102024.03;8363665;28;20032;-65
2022/01/29 00:52:48;;;;;;;33.58;13.60;;;;;;;7.89;94.33;102020.19;8381123;28;20032;-65
2022/01/29 00:56:48;;;;;;;31.75;14.57;;;;;;;7.95;94.11;102003.69;8364272;28;20032;-65
2022/01/29 01:00:48;;;;;;;37.50;15.90;;;;;;;8.00;93.41;102001.56;8379864;28;20040;-65
2022/01/29 01:04:49;;;;;;;37.13;15.27;;;;;;;7.99;93.92;101994.47;8379629;28;20024;-65
2022/01/29 01:08:49;;;;;;;32.63;14.25;;;;;;;7.96;94.06;101997.34;8395246;28;20091;-65
2022/01/29 01:12:49;;;;;;;35.25;14.98;;;;;;;7.98;94.07;101998.13;8387768;28;20032;-65
2022/01/29 01:16:50;;;;;;;37.13;15.23;;;;;;;7.97;93.88;102001.75;8339756;28;20484;-65
2022/01/29 01:20:51;;;;;;;35.83;15.70;;;;;;;7.96;94.43;102002.72;8379639;28;20055;-65
2022/01/29 01:24:51;;;;;;;39.95;17.73;;;;;;;7.93;94.90;102008.28;8378465;28;20074;-65
2022/01/29 01:28:51;;;;;;;44.83;17.15;;;;;;;7.93;94.69;101994.81;8393784;28;20106;-65
2022/01/29 01:32:52;;;;;;;50.92;18.83;;;;;;;7.93;94.98;101994.81;8362860;28;20090;-65
2022/01/29 01:36:57;;;;;;;41.58;15.40;;;;;;;8.01;94.71;101997.94;8369880;28;20511;-65
2022/01/29 01:41:02;;;;;;;42.42;16.35;;;;;;;8.02;94.40;101983.53;8428435;28;20044;-65
2022/01/29 01:45:04;;;;;;;35.60;16.02;;;;;;;8.00;94.57;101963.88;8428321;28;20170;-65
2022/01/29 01:49:04;;;;;;;39.65;16.60;;;;;;;7.95;94.86;101954.34;8425467;28;20035;-65
2022/01/29 01:53:05;;;;;;;38.35;17.40;;;;;;;7.96;95.20;101945.28;8378579;28;20040;-65
2022/01/29 01:57:06;;;;;;;43.95;17.42;;;;;;;7.93;95.71;101946.34;8378019;28;20028;-65
2022/01/29 02:01:07;;;;;;;44.63;17.10;;;;;;;7.95;95.56;101936.38;8367626;28;20504;-65
2022/01/29 02:05:08;;;;;;;43.55;17.90;;;;;;;7.90;96.27;101922.28;8382117;28;20047;-65
2022/01/29 02:09:11;;;;;;;43.38;17.73;;;;;;;7.88;96.31;101910.75;8395485;28;20064;-65
2022/01/29 02:13:11;;;;;;;44.70;17.88;;;;;;;7.88;96.59;101910.75;8398412;28;20044;-65
2022/01/29 02:17:12;;;;;;;44.53;16.65;;;;;;;7.96;96.10;101908.47;8381106;28;20107;-65
2022/01/29 02:21:13;;;;;;;46.78;19.05;;;;;;;7.96;95.97;101897.69;8381144;28;20471;-65
2022/01/29 02:25:42;;;;;;;47.20;16.98;;;;;;;7.97;96.24;101894.03;8381542;28;20492;-65
2022/01/29 02:29:44;;;;;;;43.08;17.13;;;;;;;8.03;95.77;101885.59;8398657;28;20396;-65
2022/01/29 02:33:44;;;;;;;42.83;17.10;;;;;;;7.97;96.17;101883.25;8381869;28;20033;-65
2022/01/29 02:37:50;;;;;;;43.95;18.65;;;;;;;7.98;96.53;101873.38;8397285;28;20036;-65
2022/01/29 02:41:51;;;;;;;40.33;17.98;;;;;;;7.98;96.34;101846.44;8412952;28;20045;-65
2022/01/29 02:45:53;;;;;;;44.38;19.13;;;;;;;7.93;96.96;101845.88;8431664;28;20279;-65
2022/01/29 02:49:53;;;;;;;47.75;19.13;;;;;;;7.94;97.30;101844.91;8393437;28;20037;-65
2022/01/29 02:53:53;;;;;;;46.10;18.67;;;;;;;7.98;98.42;101835.66;8364834;28;20105;-65
2022/01/29 02:57:54;;;;;;;44.72;19.10;;;;;;;8.02;98.15;101847.97;8397257;28;20040;-65
2022/01/29 03:01:54;;;;;;;49.25;17.95;;;;;;;8.02;98.60;101838.09;8386243;28;20044;-65
2022/01/29 03:05:55;;;;;;;49.03;18.70;;;;;;;7.99;99.79;101838.28;8385986;28;20044;-65
2022/01/29 03:09:55;;;;;;;48.40;18.60;;;;;;;7.97;100.00;101825.88;8364785;28;20041;-65
2022/01/29 03:13:56;;;;;;;44.70;18.95;;;;;;;7.94;100.00;101823.34;8369148;28;20131;-65
2022/01/29 03:17:56;;;;;;;42.03;17.90;;;;;;;7.92;100.00;101812.69;8375175;28;20038;-65
2022/01/29 03:21:56;;;;;;;46.97;18.75;;;;;;;7.90;100.00;101806.50;8398088;28;20111;-65
2022/01/29 03:25:57;;;;;;;41.42;17.85;;;;;;;7.91;100.00;101802.00;8380225;28;20043;-65
2022/01/29 03:29:57;;;;;;;38.28;16.80;;;;;;;7.89;100.00;101796.72;8396855;28;20041;-65
2022/01/29 03:33:58;;;;;;;46.50;18.88;;;;;;;7.84;100.00;101790.72;8397377;28;20090;-65
2022/01/29 03:37:58;;;;;;;41.35;17.02;;;;;;;7.85;100.00;101787.09;8378888;28;20067;-65
2022/01/29 03:42:03;;;;;;;37.08;14.57;;;;;;;7.87;100.00;101784.31;8395838;28;20047;-65
2022/01/29 03:46:04;;;;;;;38.28;15.60;;;;;;;7.90;100.00;101782.28;8396933;28;20043;-65
2022/01/29 03:50:05;;;;;;;35.22;14.82;;;;;;;7.85;100.00;101787.09;8378624;28;20044;-65
2022/01/29 03:54:05;;;;;;;34.47;13.80;;;;;;;7.90;100.00;101774.19;8396755;28;20059;-65
2022/01/29 03:58:05;;;;;;;28.50;12.15;;;;;;;7.95;100.00;101776.63;8378098;28;20021;-65
2022/01/29 04:02:06;;;;;;;23.92;12.13;;;;;;;7.91;100.00;101785.84;8392797;28;20037;-65
2022/01/29 04:06:07;;;;;;;26.30;11.93;;;;;;;7.96;100.00;101779.22;8363272;28;20189;-65
2022/01/29 04:10:08;;;;;;;27.67;12.13;;;;;;;7.89;100.00;101777.88;8345608;28;20037;-65
2022/01/29 04:14:15;;;;;;;22.95;11.85;;;;;;;7.89;100.00;101760.84;8394661;28;20041;-65
2022/01/29 04:18:15;;;;;;;28.42;12.73;;;;;;;7.92;100.00;101755.25;8396074;28;20039;-65
2022/01/29 04:22:16;;;;;;;22.17;11.00;;;;;;;7.98;100.00;101761.16;8378727;28;20060;-65
2022/01/29 04:26:16;;;;;;;21.65;10.43;;;;;;;8.01;100.00;101750.19;8402886;28;20036;-65
2022/01/29 04:30:38;;;;;;;23.60;10.32;;;;;;;8.03;100.00;101742.84;8401317;28;20029;-65
2022/01/29 04:34:37;;;;;;;22.38;10.00;;;;;;;8.02;100.00;101741.13;8386850;28;20059;-65
2022/01/29 04:38:37;;;;;;;20.67;10.05;;;;;;;7.95;100.00;101738.91;8424348;28;20036;-65
2022/01/29 04:42:38;;;;;;;22.38;10.15;;;;;;;7.91;100.00;101738.25;8416564;28;20066;-65
2022/01/29 04:46:39;;;;;;;26.50;10.65;;;;;;;7.90;100.00;101733.81;8417458;28;20031;-65
2022/01/29 04:50:40;;;;;;;20.17;10.13;;;;;;;7.95;100.00;101733.53;8412318;28;20589;-65
2022/01/29 04:54:40;;;;;;;18.67;8.18;;;;;;;7.99;100.00;101730.56;8380567;28;20055;-65
2022/01/29 04:58:40;;;;;;;18.25;8.73;;;;;;;8.03;100.00;101734.78;8395926;28;20043;-65
2022/01/29 05:02:41;;;;;;;14.95;8.27;;;;;;;8.03;100.00;101731.25;8401054;28;20040;-65
2022/01/29 05:06:41;;;;;;;12.95;6.43;;;;;;;8.09;100.00;101725.47;8383778;28;20139;-65
2022/01/29 05:10:42;;;;;;;12.27;5.90;;;;;;;8.08;100.00;101721.91;8383016;28;20043;-65
2022/01/29 05:15:02;;;;;;;12.43;6.20;;;;;;;8.12;100.00;101721.72;8400981;28;20032;-65
2022/01/29 05:27:43;;;;;;;9.18;4.53;;;;;;;8.24;100.00;101715.59;8400743;28;20033;-65
2022/01/29 05:31:44;;;;;;;11.43;4.57;;;;;;;8.19;100.00;101713.16;8401133;28;20036;-65
2022/01/29 05:35:44;;;;;;;7.40;3.92;;;;;;;8.19;100.00;101701.50;8400521;28;20043;-65
2022/01/29 05:39:44;;;;;;;6.88;3.70;;;;;;;8.21;100.00;101707.69;8413834;28;20041;-65
2022/01/29 05:43:45;;;;;;;6.47;4.53;;;;;;;8.17;100.00;101706.16;8359772;28;20037;-65
2022/01/29 05:47:45;;;;;;;6.13;4.38;;;;;;;8.17;100.00;101706.16;8332893;28;20029;-65
2022/01/29 05:51:46;;;;;;;6.78;3.95;;;;;;;8.23;100.00;101695.03;8391559;28;20031;-65
2022/01/29 05:55:46;;;;;;;6.75;3.92;;;;;;;8.18;100.00;101691.72;8399601;28;20029;-65
2022/01/29 05:59:47;;;;;;;5.38;3.75;;;;;;;8.23;100.00;101705.78;8365138;28;20024;-65
2022/01/29 06:03:47;;;;;;;6.68;3.92;;;;;;;8.20;100.00;101701.41;8364089;28;20087;-65
2022/01/29 06:07:48;;;;;;;6.68;3.78;;;;;;;8.18;100.00;101697.09;8399884;28;20036;-65
2022/01/29 06:11:48;;;;;;;5.70;4.07;;;;;;;8.17;100.00;101689.97;8381243;28;20032;-65
2022/01/29 06:15:52;;;;;;;6.22;3.63;;;;;;;8.13;100.00;101677.66;8393612;28;20066;-65
2022/01/29 06:19:52;;;;;;;7.18;4.35;;;;;;;8.18;100.00;101675.53;8357115;28;20504;-65
2022/01/29 06:23:53;;;;;;;7.38;4.47;;;;;;;8.22;100.00;101675.28;8348040;28;20055;-65
2022/01/29 06:27:53;;;;;;;7.38;4.47;;;;;;;8.28;100.00;101663.25;8347211;28;20037;-65
2022/01/29 06:31:53;;;;;;;7.32;4.70;;;;;;;8.35;100.00;101664.59;8375745;28;20471;-65
2022/01/29 06:35:54;;;;;;;6.97;4.78;;;;;;;8.43;100.00;101664.97;8364987;28;20052;-65
2022/01/29 06:39:55;;;;;;;6.35;4.28;;;;;;;8.48;100.00;101652.06;8403440;28;20056;-65
2022/01/29 06:43:55;;;;;;;7.72;4.72;;;;;;;8.54;100.00;101652.50;8367613;28;22704;-65
2022/01/29 06:47:56;;;;;;;7.55;5.15;;;;;;;8.57;100.00;101657.69;8363110;28;20044;-65
2022/01/29 06:51:57;;;;;;;5.57;3.45;;;;;;;8.56;100.00;101655.09;8371247;28;20044;-65
2022/01/29 06:55:57;;;;;;;6.47;4.80;;;;;;;8.58;100.00;101658.56;8383307;28;20048;-65
2022/01/29 06:59:57;;;;;;;6.47;4.57;;;;;;;8.55;100.00;101642.59;8379440;28;20516;-66
2022/01/29 07:03:58;;;;;;;5.93;4.23;;;;;;;8.65;100.00;101641.03;8376586;28;20043;-66
2022/01/29 07:07:59;;;;;;;4.60;3.60;;;;;;;8.71;100.00;101638.81;8396545;28;20263;-65
2022/01/29 07:12:08;;;;;;;4.82;3.65;;;;;;;8.73;100.00;101636.00;8391263;28;20060;-65
2022/01/29 07:16:08;;;;;;;5.70;3.85;;;;;;;8.67;100.00;101622.94;8384070;28;20044;-65
2022/01/29 07:20:09;;;;;;;6.30;4.40;;;;;;;8.78;100.00;101633.88;8391950;28;20044;-66
2022/01/29 07:24:09;;;;;;;8.48;3.83;;;;;;;8.75;100.00;101628.69;8399831;28;20435;-65
2022/01/29 07:28:10;;;;;;;6.13;4.60;;;;;;;8.75;100.00;101628.69;8393107;28;20047;-65
2022/01/29 07:32:11;;;;;;;7.43;4.65;;;;;;;8.78;100.00;101618.56;8341291;28;20040;-65
2022/01/29 07:36:11;;;;;;;6.05;4.63;;;;;;;8.86;100.00;101615.34;8370155;28;20044;-65
2022/01/29 07:40:12;;;;;;;6.93;4.40;;;;;;;8.92;100.00;101609.53;8386969;28;20049;-65
2022/01/29 07:44:13;;;;;;;6.28;4.20;;;;;;;8.92;100.00;101604.13;8368072;28;20654;-65
2022/01/29 07:48:13;;;;;;;7.35;4.45;;;;;;;8.98;100.00;101614.53;8395009;28;20447;-65
2022/01/29 07:52:13;;;;;;;6.70;4.72;;;;;;;9.01;100.00;101603.53;8395025;28;20028;-66
2022/01/29 07:56:14;;;;;;;5.82;4.70;;;;;;;9.07;100.00;101605.81;8379095;28;20032;-66
2022/01/29 08:00:15;;;;;;;6.53;4.88;;;;;;;9.09;100.00;101612.81;8367130;28;20400;-66
2022/01/29 08:04:15;;;;;;;5.90;4.47;;;;;;;9.11;100.00;101615.41;8383175;28;20064;-66
2022/01/29 08:08:15;;;;;;;6.28;4.63;;;;;;;9.15;100.00;101606.16;8335041;28;20044;-66
2022/01/29 08:12:16;;;;;;;5.68;4.65;;;;;;;9.23;100.00;101611.88;8356758;28;20041;-66
2022/01/29 08:16:16;;;;;;;6.32;4.63;;;;;;;9.24;100.00;101610.91;8400609;28;20036;-66
2022/01/29 08:20:17;;;;;;;6.50;4.35;;;;;;;9.21;100.00;101611.13;8395189;28;20440;-65
2022/01/29 08:24:17;;;;;;;5.22;4.10;;;;;;;9.25;100.00;101618.03;8402492;28;20079;-65
2022/01/29 08:28:18;;;;;;;5.00;4.15;;;;;;;9.26;100.00;101608.97;8382088;28;20383;-65
2022/01/29 08:32:18;;;;;;;6.18;4.30;;;;;;;9.27;100.00;101613.41;8372756;28;20444;-65
2022/01/29 08:36:19;;;;;;;6.22;4.32;;;;;;;9.34;100.00;101612.84;8390087;28;20046;-65
2022/01/29 08:40:19;;;;;;;5.45;4.30;;;;;;;9.31;100.00;101626.59;8359310;28;20053;-65
2022/01/29 08:44:20;;;;;;;5.63;4.45;;;;;;;9.32;100.00;101624.72;8380060;28;20040;-65
2022/01/29 08:48:21;;;;;;;7.15;4.65;;;;;;;9.34;100.00;101612.00;8374170;28;20110;-66
2022/01/29 08:52:22;;;;;;;7.28;4.13;;;;;;;9.38;100.00;101614.38;8358863;28;20036;-65
2022/01/29 08:56:22;;;;;;;4.30;3.70;;;;;;;9.38;100.00;101602.72;8395980;28;20060;-65
2022/01/29 09:00:23;;;;;;;4.57;3.90;;;;;;;9.43;100.00;101597.88;8399354;28;20032;-65
2022/01/29 09:04:23;;;;;;;4.57;3.85;;;;;;;9.47;100.00;101591.28;8399886;28;20329;-67
2022/01/29 09:08:24;;;;;;;4.38;3.88;;;;;;;9.51;100.00;101593.66;8382728;28;20024;-66
2022/01/29 09:12:25;;;;;;;4.90;3.65;;;;;;;9.58;100.00;101594.09;8379761;28;20474;-66
2022/01/29 09:16:26;;;;;;;4.15;3.58;;;;;;;9.68;100.00;101590.66;8398705;28;20496;-66
2022/01/29 09:20:27;;;;;;;4.20;3.25;;;;;;;9.78;100.00;101570.13;8379645;28;20043;-66
2022/01/29 09:24:27;;;;;;;4.28;3.40;;;;;;;9.94;99.50;101568.03;8380855;28;20478;-66
2022/01/29 09:28:28;;;;;;;6.70;3.45;;;;;;;10.09;98.99;101568.78;8379301;28;20055;-66
2022/01/29 09:32:29;;;;;;;4.72;3.30;;;;;;;10.17;98.14;101560.09;8379932;28;20033;-66
2022/01/29 09:36:29;;;;;;;3.95;3.13;;;;;;;10.30;97.75;101555.53;8403323;28;20411;-66
2022/01/29 09:40:30;;;;;;;2.90;2.60;;;;;;;10.43;97.26;101557.19;8431692;28;20071;-66
2022/01/29 09:44:33;;;;;;;4.80;3.35;;;;;;;10.56;96.20;101547.22;8412709;28;20040;-67
2022/01/29 09:48:34;;;;;;;3.20;2.70;;;;;;;10.55;95.86;101536.53;8422710;28;20119;-66
2022/01/29 09:52:34;;;;;;;3.63;2.80;;;;;;;10.48;96.44;101528.00;8398801;28;20271;-66
2022/01/29 09:56:35;;;;;;;4.57;3.00;;;;;;;10.52;96.88;101528.63;8398550;28;20059;-66
2022/01/29 10:00:36;;;;;;;2.70;2.50;;;;;;;10.66;96.16;101532.00;8397907;28;20116;-66
2022/01/29 10:04:47;;;;;;;2.58;2.38;;;;;;;10.74;95.59;101536.84;8378276;28;20033;-66
2022/01/29 10:08:47;;;;;;;2.40;2.05;;;;;;;10.76;94.82;101535.72;8378085;28;20100;-66
2022/01/29 10:12:48;;;;;;;3.03;2.40;;;;;;;10.75;94.29;101539.44;8378549;28;20033;-66
2022/01/29 10:16:48;;;;;;;1.90;1.60;;;;;;;10.73;94.84;101540.53;8396782;28;20036;-66
2022/01/29 10:20:50;;;;;;;1.92;1.65;;;;;;;10.77;94.56;101548.28;8395039;28;20036;-66
2022/01/29 10:24:51;;;;;;;2.55;1.85;;;;;;;10.78;94.24;101535.63;8396886;28;20039;-66
2022/01/29 10:28:54;;;;;;;1.65;1.40;;;;;;;10.76;94.48;101537.56;8378166;28;20036;-66
2022/01/29 10:33:20;;;;;;;2.60;1.25;;;;;;;10.80;94.06;101526.41;8362178;28;20064;-66
2022/01/29 10:37:23;;;;;;;1.98;1.50;;;;;;;10.82;94.71;101516.34;8394470;28;20028;-66
2022/01/29 10:41:28;;;;;;;1.20;1.10;;;;;;;10.91;94.89;101520.16;8429987;28;20051;-65
2022/01/29 10:45:36;;;;;;;1.33;1.08;;;;;;;11.16;93.76;101501.91;8403739;28;20056;-66
2022/01/29 10:49:44;;;;;;;0.90;0.80;;;;;;;11.69;91.63;101497.69;8390247;28;20134;-66
2022/01/29 10:53:44;;;;;;;1.00;0.70;;;;;;;12.36;88.25;101482.16;8389679;28;20160;-66
2022/01/29 10:57:46;;;;;;;1.20;0.90;;;;;;;12.39;87.55;101493.59;8389435;28;20032;-66
2022/01/29 11:01:49;;;;;;;0.85;0.60;;;;;;;11.80;90.08;101498.53;8388878;28;20433;-66
2022/01/29 11:05:50;;;;;;;0.90;0.60;;;;;;;11.30;93.26;101488.16;8388573;28;20059;-67
2022/01/29 11:09:51;;;;;;;1.33;0.80;;;;;;;11.00;96.15;101493.28;8372221;28;20377;-66
2022/01/29 11:13:51;;;;;;;1.38;0.57;;;;;;;10.85;98.54;101480.94;8390576;28;20036;-67
2022/01/29 11:17:52;;;;;;;0.77;0.50;;;;;;;10.86;99.51;101462.88;8389481;28;20036;-67
2022/01/29 11:21:56;;;;;;;0.70;0.63;;;;;;;11.06;98.82;101463.03;8372942;28;20043;-67
2022/01/29 11:25:59;;;;;;;3.47;0.70;;;;;;;11.08;97.90;101463.78;8390362;28;20115;-67
2022/01/29 11:30:15;;;;;;;1.08;0.50;;;;;;;11.05;98.80;101453.19;8372612;28;20032;-67
2022/01/29 11:34:19;;;;;;;0.93;0.52;;;;;;;10.98;100.00;101446.50;8390432;28;20070;-67
2022/01/29 11:38:31;;;;;;;1.00;0.80;;;;;;;11.02;100.00;101431.78;8410502;28;20487;-67
2022/01/29 11:42:31;;;;;;;1.48;0.80;;;;;;;10.99;100.00;101423.91;8423002;28;20040;-67
2022/01/29 11:46:33;;;;;;;0.80;0.80;;;;;;;10.93;100.00;101424.41;8423325;28;20366;-67
2022/01/29 11:55:07;;;;;;;5.78;1.08;;;;;;;10.83;100.00;101414.41;8421968;27;20503;-65
2022/01/29 11:59:28;;;;;;;2.45;1.40;;;;;;;10.85;100.00;101404.31;8417999;28;20051;-66
2022/01/29 12:08:16;;;;;;;1.20;1.02;;;;;;;11.20;100.00;101391.56;8409283;27;20885;-65
2022/01/29 12:12:26;;;;;;;1.02;0.93;;;;;;;11.21;99.91;101386.03;8402281;27;20037;-65
2022/01/29 12:16:50;;;;;;;1.58;1.13;;;;;;;11.21;99.38;101369.78;8389056;28;20412;-65
2022/01/29 12:20:51;;;;;;;1.30;1.10;;;;;;;11.20;100.00;101369.91;8350416;28;20033;-65
2022/01/29 12:24:54;;;;;;;1.58;1.42;;;;;;;11.02;100.00;101365.97;8368396;28;20047;-65
2022/01/29 12:28:55;;;;;;;1.42;1.33;;;;;;;11.01;100.00;101351.56;8378468;28;20040;-65
2022/01/29 12:33:06;;;;;;;2.22;1.45;;;;;;;11.01;100.00;101343.44;8377364;28;20063;-65
2022/01/29 12:37:16;;;;;;;1.73;1.10;;;;;;;11.14;100.00;101332.50;8368749;28;20037;-67
2022/01/29 12:41:34;;;;;;;2.53;1.13;;;;;;;11.60;99.86;101328.63;8315617;28;20029;-67
2022/01/29 12:45:35;;;;;;;1.40;0.60;;;;;;;12.81;91.59;101315.44;8374234;28;20043;-67
2022/01/29 12:49:40;;;;;;;1.00;0.77;;;;;;;13.63;85.61;101309.69;8391827;28;20036;-66
2022/01/29 12:53:41;;;;;;;1.27;0.98;;;;;;;12.66;89.77;101303.22;8340557;28;20279;-66
2022/01/29 12:57:45;;;;;;;1.60;0.77;;;;;;;12.10;92.20;101312.69;8372629;28;20075;-66
2022/01/29 13:01:47;;;;;;;0.93;0.70;;;;;;;12.07;94.50;101307.53;8353879;28;20120;-66
2022/01/29 13:05:48;;;;;;;1.35;0.80;;;;;;;11.86;94.37;101300.22;8354989;28;20044;-67
2022/01/29 13:09:55;;;;;;;2.03;0.68;;;;;;;11.78;94.90;101297.28;8367330;28;20047;-67
2022/01/29 13:13:56;;;;;;;0.70;0.70;;;;;;;11.82;94.53;101285.22;8363449;28;20451;-67
2022/01/29 13:17:57;;;;;;;1.30;1.10;;;;;;;11.87;94.48;101282.97;8344237;28;20104;-67
2022/01/29 13:22:00;;;;;;;2.55;1.10;;;;;;;12.06;92.17;101273.28;8348580;28;20132;-67
2022/01/29 13:26:18;;;;;;;2.85;1.65;;;;;;;12.27;91.17;101271.44;8350279;28;20120;-67
2022/01/29 13:30:23;;;;;;;3.15;1.42;;;;;;;12.37;90.36;101277.75;8328663;28;20046;-67
2022/01/29 13:34:30;;;;;;;5.80;1.52;;;;;;;12.40;90.57;101255.78;8339529;28;20505;-67
2022/01/29 13:38:38;;;;;;;4.25;1.60;;;;;;;12.42;90.63;101264.66;8332788;28;20044;-67
2022/01/29 13:42:52;;;;;;;4.68;2.00;;;;;;;12.64;89.11;101257.22;8335639;28;20443;-67
2022/01/29 13:47:09;;;;;;;;;;;;;;;12.70;88.71;101258.53;8328298;28;20043;-67
2022/01/29 13:51:11;;;;;;;5.07;2.03;;;;;;;12.63;89.55;101251.94;8322952;28;20011;-67
2022/01/29 13:55:12;;;;;;;5.78;1.90;;;;;;;12.71;88.55;101246.66;8343515;28;20555;-67
2022/01/29 13:59:13;;;;;;;3.17;2.10;;;;;;;12.75;88.34;101231.84;8338453;28;20049;-67
2022/01/29 14:03:13;;;;;;;3.50;1.90;;;;;;;12.80;88.09;101237.72;8344836;28;20071;-67
2022/01/29 14:07:19;;;;;;;4.22;1.98;;;;;;;12.63;88.69;101230.22;8337519;28;20405;-68
2022/01/29 14:11:19;;;;;;;3.53;2.13;;;;;;;12.59;89.72;101245.91;8352419;28;20045;-67
2022/01/29 14:15:20;;;;;;;5.68;2.00;;;;;;;12.53;90.03;101251.03;8310966;28;20041;-67
2022/01/29 14:19:22;;;;;;;5.88;2.22;;;;;;;12.53;90.12;101256.47;8346483;28;20056;-67
2022/01/29 14:23:23;;;;;;;3.85;1.90;;;;;;;12.46;90.72;101266.09;8356194;28;20558;-67
2022/01/29 14:27:23;;;;;;;2.37;2.00;;;;;;;12.47;90.39;101246.16;8331649;28;20103;-67
2022/01/29 14:31:24;;;;;;;4.05;2.20;;;;;;;12.47;90.69;101251.56;8340963;28;20430;-67
2022/01/29 14:35:24;;;;;;;5.85;2.00;;;;;;;12.45;90.66;101231.84;8339167;28;20060;-66
2022/01/29 14:39:26;;;;;;;5.78;2.38;;;;;;;12.40;90.98;101234.09;8343899;28;20099;-67
2022/01/29 14:43:26;;;;;;;4.47;2.00;;;;;;;12.39;91.45;101233.25;8357990;28;20058;-66
2022/01/29 14:47:28;;;;;;;5.22;2.47;;;;;;;12.32;91.89;101233.94;8329743;28;20037;-67
2022/01/29 14:51:34;;;;;;;6.28;2.25;;;;;;;12.36;92.02;101238.09;8339602;28;20040;-66
2022/01/29 14:55:34;;;;;;;4.10;2.45;;;;;;;12.32;92.33;101226.63;8350054;28;20041;-65
2022/01/29 14:59:36;;;;;;;5.20;2.88;;;;;;;12.31;92.93;101256.59;8340148;28;20043;-65
2022/01/29 15:03:36;;;;;;;4.20;3.17;;;;;;;12.39;92.79;101244.13;8359890;28;20106;-66
2022/01/29 15:07:37;;;;;;;6.68;3.00;;;;;;;12.39;93.14;101278.50;8353140;28;20183;-66
2022/01/29 15:11:37;;;;;;;5.72;2.80;;;;;;;12.39;93.41;101264.94;8386142;28;20155;-66
2022/01/29 15:15:41;;;;;;;5.47;3.25;;;;;;;12.32;93.52;101258.34;8359265;28;20617;-66
2022/01/29 15:19:42;;;;;;;5.85;3.28;;;;;;;12.30;94.26;101247.63;8348483;28;20051;-66
2022/01/29 15:23:43;;;;;;;6.45;4.10;;;;;;;12.38;94.13;101252.38;8369491;28;20470;-66
2022/01/29 15:27:43;;;;;;;8.90;4.10;;;;;;;12.43;93.76;101258.25;8336282;28;20045;-66
2022/01/29 15:31:44;;;;;;;6.22;3.92;;;;;;;12.43;93.88;101250.09;8335736;28;20118;-66
2022/01/29 15:35:45;;;;;;;5.38;3.58;;;;;;;12.46;93.53;101257.97;8335377;28;20060;-66
2022/01/29 15:39:45;;;;;;;6.85;3.45;;;;;;;12.42;93.62;101233.00;8349515;28;20064;-66
2022/01/29 15:43:45;;;;;;;5.80;3.30;;;;;;;12.44;93.71;101227.44;8339229;28;20120;-66
2022/01/29 15:47:46;;;;;;;6.50;3.20;;;;;;;12.39;94.94;101221.56;8341579;28;20040;-66
2022/01/29 15:51:47;;;;;;;5.18;3.35;;;;;;;12.33;96.58;101238.34;8336873;28;20052;-66
2022/01/29 15:55:47;;;;;;;8.88;4.32;;;;;;;12.22;98.22;101265.53;8357032;28;20483;-66
2022/01/29 15:59:48;;;;;;;9.07;4.30;;;;;;;12.14;100.00;101263.47;8342565;28;20072;-65
2022/01/29 16:03:51;;;;;;;5.60;3.80;;;;;;;12.10;100.00;101244.94;8347976;28;20045;-65
2022/01/29 16:07:51;;;;;;;8.50;5.22;;;;;;;11.96;100.00;101251.53;8347916;28;20045;-65
2022/01/29 16:11:52;;;;;;;8.30;4.30;;;;;;;11.93;100.00;101267.19;8342742;28;20041;-65
2022/01/29 16:15:53;;;;;;;6.88;4.65;;;;;;;11.88;100.00;101268.44;8344164;28;20107;-65
2022/01/29 16:19:54;;;;;;;9.02;5.03;;;;;;;11.90;100.00;101254.78;8350502;28;20095;-65
2022/01/29 16:23:54;;;;;;;11.23;5.47;;;;;;;11.92;100.00;101270.91;8352356;28;20416;-65
2022/01/29 16:27:54;;;;;;;7.47;4.78;;;;;;;11.77;100.00;101263.06;8336261;28;20033;-65
2022/01/29 16:31:55;;;;;;;9.07;6.13;;;;;;;11.76;100.00;101271.31;8345399;28;20670;-65
2022/01/29 16:35:56;;;;;;;15.38;6.05;;;;;;;11.66;100.00;101271.25;8336851;28;20041;-65
2022/01/29 16:39:56;;;;;;;8.75;6.40;;;;;;;11.62;100.00;101245.41;8340332;28;20545;-66
2022/01/29 16:43:57;;;;;;;9.85;5.40;;;;;;;11.67;100.00;101245.88;8339233;28;20045;-66
2022/01/29 16:47:57;;;;;;;10.65;5.70;;;;;;;11.67;100.00;101245.88;8352704;28;20555;-66
2022/01/29 16:51:58;;;;;;;11.80;5.88;;;;;;;11.64;100.00;101261.53;8342934;28;20060;-65
2022/01/29 16:55:58;;;;;;;8.00;5.20;;;;;;;11.72;100.00;101249.03;8344118;28;20497;-66
2022/01/29 16:59:59;;;;;;;9.07;4.38;;;;;;;11.78;100.00;101248.53;8347191;28;20038;-66
2022/01/29 17:03:59;;;;;;;6.78;4.75;;;;;;;11.88;100.00;101260.31;8342123;28;20152;-66
2022/01/29 17:07:59;;;;;;;8.57;4.77;;;;;;;11.89;100.00;101259.31;8349736;28;20048;-66
2022/01/29 17:12:00;;;;;;;8.00;4.25;;;;;;;11.99;100.00;101261.25;8341758;28;20363;-66
2022/01/29 17:16:01;;;;;;;7.47;4.65;;;;;;;11.93;100.00;101259.06;8330816;28;20465;-66
2022/01/29 17:20:03;;;;;;;11.88;4.32;;;;;;;12.04;100.00;101250.88;8327641;28;20061;-66
2022/01/29 17:24:04;;;;;;;12.98;5.40;;;;;;;12.05;100.00;101250.75;8335916;28;20455;-66
2022/01/29 17:28:04;;;;;;;11.05;4.50;;;;;;;12.17;100.00;101254.25;8319753;28;20060;-66
2022/01/29 17:32:05;;;;;;;12.65;4.82;;;;;;;12.21;100.00;101244.84;8341850;28;20413;-66
2022/01/29 17:36:06;;;;;;;16.38;6.07;;;;;;;12.26;100.00;101248.03;8321935;28;20596;-66
2022/01/29 17:40:07;;;;;;;11.30;5.25;;;;;;;12.30;100.00;101252.19;8322989;28;20109;-66
2022/01/29 17:44:07;;;;;;;11.00;3.97;;;;;;;12.52;99.12;101262.84;8325962;28;20045;-66
2022/01/29 17:48:08;;;;;;;7.03;3.90;;;;;;;12.51;98.62;101253.00;8318493;28;20046;-66
2022/01/29 17:52:10;;;;;;;7.55;4.18;;;;;;;12.49;98.54;101272.13;8326799;28;20040;-67
2022/01/29 17:56:11;;;;;;;8.38;3.92;;;;;;;12.48;98.73;101274.97;8328451;28;20127;-67
2022/01/29 18:00:12;;;;;;;5.72;3.45;;;;;;;12.50;98.17;101273.00;8332844;28;20075;-66
2022/01/29 18:04:12;;;;;;;11.18;3.70;;;;;;;12.62;96.89;101282.75;8336020;28;20473;-66
2022/01/29 18:08:13;;;;;;;10.85;3.67;;;;;;;12.66;96.29;101278.78;8342563;28;20041;-66
2022/01/29 18:12:14;;;;;;;9.35;4.22;;;;;;;12.53;97.07;101280.88;8350512;28;20120;-66
2022/01/29 18:16:17;;;;;;;7.90;3.40;;;;;;;12.60;96.58;101304.59;8366351;28;20127;-66
2022/01/29 18:20:17;;;;;;;10.10;4.35;;;;;;;12.62;96.18;101294.47;8339292;28;20060;-66
2022/01/29 18:24:17;;;;;;;10.50;3.38;;;;;;;12.60;96.24;101311.88;8347858;28;20041;-66
2022/01/29 18:28:23;;;;;;;8.68;3.35;;;;;;;12.58;95.85;101292.16;8345804;28;20052;-66
2022/01/29 18:32:25;;;;;;;6.22;3.47;;;;;;;12.49;96.30;101298.38;8345720;28;20060;-67
2022/01/29 18:36:27;;;;;;;7.00;3.65;;;;;;;12.52;96.43;101303.53;8336771;28;20041;-67
2022/01/29 18:40:29;;;;;;;5.50;2.85;;;;;;;12.66;95.31;101304.03;8341891;28;20145;-67
2022/01/29 18:44:29;;;;;;;8.68;3.60;;;;;;;12.68;94.73;101298.50;8342442;28;20041;-67
2022/01/29 18:48:30;;;;;;;8.80;3.83;;;;;;;12.66;94.73;101316.78;8347539;28;20068;-67
2022/01/29 18:52:31;;;;;;;9.32;4.32;;;;;;;12.62;94.82;101309.88;8347266;28;20428;-67
2022/01/29 18:56:34;;;;;;;15.00;5.32;;;;;;;12.52;95.56;101311.69;8347416;28;20033;-67